Nearby METAR Reports

 

KMEV - Minden, Nevada, USA
Distance from station: N 3mi, 5km
Updated: Thu, 19-Oct-2017 7:55pm PDT
Clear
Clear
 Wind from S
Wind: S 23 mph , 37 km/h, Gust: 36 mph , 57 km/h
Temperature: 57°F , 14°C
Dew Point: 36°F , 2°C
Humidity: 44%
Barometer: 29.81 inHg , 1009.5 hPa
Clouds: Clear
Visibility: 10 miles , 16 km
2017/10/20 02:55 KMEV 200255Z AUTO 19020G31KT 10SM CLR 14/02 A2981 RMK AO2
KCXP - Carson City, Nevada, USA
Distance from station: N 10mi, 16km
Updated: Thu, 19-Oct-2017 7:55pm PDT
Clear
Clear
 Wind from SW
Wind: SW 12 mph , 19 km/h, Gust: 20 mph , 31 km/h
Temperature: 59°F , 15°C
Dew Point: 34°F , 1°C
Humidity: 39%
Barometer: 29.82 inHg , 1009.8 hPa
Clouds: Clear
Visibility: 10 miles , 16 km
2017/10/20 02:55 KCXP 200255Z AUTO 23010G17KT 200V280 10SM CLR 15/01 A2982 RMK AO2
 
KTVL - South Lake Tahoe, California, USA
Distance from station: WSW 18mi, 29km
Updated: Thu, 19-Oct-2017 7:53pm PDT
Overcast
Overcast
 Wind from S
Wind: S 8 mph , 13 km/h, Gust: 17 mph , 28 km/h
Temperature: 52°F , 11°C
Dew Point: 37°F , 3°C
Humidity: 58%
Barometer: 29.87 inHg , 1011.5 hPa
Clouds: Overcast
Visibility: 10 miles , 16 km
Cloud details: Mostly cloudy 3800 ft
Overcast 4800 ft
2017/10/20 02:53 KTVL 200253Z AUTO 18007G15KT 10SM BKN038 OVC048 11/03 A2987 RMK AO2 PK WND 19029/0230 SLP075 T01110028 58018
KTRK - Truckee Tahoe, California, USA
Distance from station: NW 29mi, 46km
Updated: Thu, 19-Oct-2017 7:55pm PDT
Overcast
Overcast
 Wind from SSW
Wind: SSW 21 mph , 33 km/h, Gust: 31 mph , 50 km/h
Temperature: 52°F , 11°C
Dew Point: 36°F , 2°C
Humidity: 54%
Barometer: 29.88 inHg , 1011.9 hPa
Clouds: Overcast
Visibility: 10 miles , 16 km
Cloud details: Overcast 4000 ft
2017/10/20 02:55 KTRK 200255Z AUTO 20018G27KT 10SM OVC040 11/02 A2988 RMK AO2
 
KRNO - Reno, Nevada, USA
Distance from station: N 31mi, 50km
Updated: Thu, 19-Oct-2017 7:55pm PDT
Partly cloudy
Partly cloudy
 Wind from SW
Wind: SW 9 mph , 15 km/h
Temperature: 63°F , 17°C
Dew Point: 36°F , 2°C
Humidity: 37%
Barometer: 29.78 inHg , 1008.5 hPa
Clouds: Partly cloudy
Visibility: 10 miles , 16 km
Cloud details: Few Clouds 7000 ft
Partly cloudy 16000 ft
Partly cloudy 22000 ft
2017/10/20 02:55 KRNO 200255Z 23008KT 10SM FEW070 SCT160 SCT220 17/02 A2978 RMK AO2 SLP060 ACSL DSNT N-E-S T01670017 56014
KRTS - Reno/Stead, Nevada, USA
Distance from station: NNW 44mi, 71km
Updated: Thu, 19-Oct-2017 7:55pm PDT
Partly cloudy
Partly cloudy
 Wind from SW
Wind: SW 15 mph , 24 km/h, Gust: 24 mph , 39 km/h
Temperature: 57°F , 14°C
Dew Point: 36°F , 2°C
Humidity: 44%
Barometer: 29.83 inHg , 1010.2 hPa
Clouds: Partly cloudy
Visibility: 10 miles , 16 km
Cloud details: Partly cloudy 5000 ft
Partly cloudy 6500 ft
2017/10/20 02:55 KRTS 200255Z AUTO 23013G21KT 10SM SCT050 SCT065 14/02 A2983 RMK AO2
 
KBLU - Emigrant Gap, California, USA
Distance from station: WNW 55mi, 89km
Updated: Thu, 19-Oct-2017 7:52pm PDT
Fog, Overcast
Fog, Overcast
 Wind from S
Wind: S 14 mph , 22 km/h, Gust: 23 mph , 37 km/h
Temperature: 45°F , 7°C
Wind Chill: 39°F , 4°C
Dew Point: 45°F , 7°C
Humidity: 100%
Barometer: 29.92 inHg , 1013.2 hPa
Summary: Fog
Clouds: Overcast
Visibility: 1/4 mile , 0.4 km
Cloud details: Overcast 200 ft
2017/10/20 02:52 KBLU 200252Z AUTO 18012G20KT 1/4SM FG VV002 07/07 A2992 RMK AO2 SLP095 T00720072 58002 TSNO
KPVF - Placerville, California, USA
Distance from station: WSW 60mi, 96km
Updated: Thu, 19-Oct-2017 7:55pm PDT
Overcast
Overcast
 Wind from S
Wind: S 8 mph , 13 km/h
Temperature: 54°F , 12°C
Dew Point: 48°F , 9°C
Humidity: 82%
Barometer: 29.93 inHg , 1013.5 hPa
Clouds: Overcast
Visibility: 10 miles , 16 km
Cloud details: Overcast 800 ft
2017/10/20 02:55 KPVF 200255Z AUTO 18007KT 10SM OVC008 12/09 A2993 RMK AO1
 
KNFL - Fallon Nas, Nevada, USA
Distance from station: ENE 61mi, 97km
Updated: Thu, 19-Oct-2017 7:56pm PDT
Mostly cloudy
Mostly cloudy
 Wind from NW
Wind: NW 8 mph , 13 km/h
Temperature: 63°F , 17°C
Dew Point: 30°F , -1°C
Humidity: 30%
Barometer: 29.73 inHg , 1006.8 hPa
Clouds: Mostly cloudy
Visibility: 10 miles , 16 km
Cloud details: Few Clouds 7000 ft
Partly cloudy 15000 ft
Mostly cloudy 25000 ft
2017/10/20 02:56 KNFL 200256Z 32007KT 10SM FEW070 SCT150 BKN250 17/M01 A2973 RMK AO2 PK WND 28026/0201 SLP048 T01721006 56010
KGOO - Grass Valley, California, USA
Distance from station: W 70mi, 112km
Updated: Thu, 19-Oct-2017 7:55pm PDT
Overcast
Overcast
 Wind from S
Wind: S 5 mph , 7 km/h
Temperature: 52°F , 11°C
Dew Point: 48°F , 9°C
Humidity: 88%
Barometer: 29.89 inHg , 1012.2 hPa
Clouds: Overcast
Visibility: 10 miles , 16 km
Cloud details: Overcast 600 ft
2017/10/20 02:55 KGOO 200255Z AUTO 19004KT 10SM OVC006 11/09 A2989 RMK AO1
 
KAUN - Auburn Muni, California, USA
Distance from station: W 73mi, 118km
Updated: Thu, 19-Oct-2017 7:55pm PDT
Overcast
Overcast
 Wind from S
Wind: S 9 mph , 15 km/h
Temperature: 57°F , 14°C
Dew Point: 52°F , 11°C
Humidity: 82%
Barometer: 29.89 inHg , 1012.2 hPa
Clouds: Overcast
Visibility: 10 miles , 16 km
Cloud details: Partly cloudy 1400 ft
Overcast 4600 ft
2017/10/20 02:55 KAUN 200255Z AUTO 17008KT 10SM SCT014 OVC046 14/11 A2989 RMK AO1
KO22 - Columbia, California, USA
Distance from station: SSW 79mi, 127km
Updated: Thu, 19-Oct-2017 7:55pm PDT
Overcast
Overcast
 
Temperature: 59°F , 15°C
Dew Point: 50°F , 10°C
Humidity: 72%
Barometer: 29.94 inHg , 1013.9 hPa
Clouds: Overcast
Visibility: 10 miles , 16 km
Cloud details: Overcast 3200 ft
2017/10/20 02:55 KO22 200255Z AUTO 10SM OVC032 15/10 A2994 RMK AO1
 
KLHM - Lincoln, California, USA
Distance from station: W 88mi, 141km
Updated: Thu, 19-Oct-2017 7:55pm PDT
Partly cloudy
Partly cloudy
 Wind from S
Wind: S 16 mph , 26 km/h
Temperature: 63°F , 17°C
Dew Point: 50°F , 10°C
Humidity: 64%
Barometer: 29.85 inHg , 1010.8 hPa
Clouds: Partly cloudy
Visibility: 10 miles , 16 km
Cloud details: Partly cloudy 4200 ft
2017/10/20 02:55 KLHM 200255Z AUTO 17014KT 10SM SCT042 17/10 A2985 RMK AO1
KBAB - Beale Afb/Marysv, California, USA
Distance from station: W 91mi, 147km
Updated: Thu, 19-Oct-2017 7:58pm PDT
Overcast
Overcast
 Wind from SSE
Wind: SSE 16 mph , 26 km/h, Gust: 23 mph , 37 km/h
Temperature: 64°F , 18°C
Dew Point: 54°F , 12°C
Humidity: 68%
Barometer: 29.82 inHg , 1009.8 hPa
Clouds: Overcast
Visibility: 10 miles , 16 km
Cloud details: Mostly cloudy 4200 ft
Overcast 6000 ft
2017/10/20 02:58 KBAB 200258Z 16014G20KT 10SM BKN042 OVC060 18/12 A2982 RMK AO2A SLP101 T01760117 53003 $
 
KMHR - Mather Field, California, USA
Distance from station: WSW 91mi, 147km
Updated: Thu, 19-Oct-2017 7:45pm PDT
Overcast
Overcast
 Wind from SSW
Wind: SSW 12 mph , 19 km/h
Temperature: 61°F , 16°C
Dew Point: 54°F , 12°C
Humidity: 77%
Barometer: 29.87 inHg , 1011.5 hPa
Clouds: Overcast
Visibility: 10 miles , 16 km
Cloud details: Partly cloudy 6000 ft
Overcast 7000 ft
2017/10/20 02:45 KMHR 200245Z 21010KT 10SM SCT060 OVC070 16/12 A2987
KLOL - Lovelock, Nevada, USA
Distance from station: NE 94mi, 151km
Updated: Thu, 19-Oct-2017 7:53pm PDT
Clear
Clear
 Wind from WSW
Wind: WSW 14 mph , 22 km/h, Gust: 20 mph , 31 km/h
Temperature: 63°F , 17°C
Dew Point: 32°F , 0°C
Humidity: 32%
Barometer: 29.72 inHg , 1006.4 hPa
Clouds: Clear
Visibility: 10 miles , 16 km
2017/10/20 02:53 KLOL 200253Z AUTO 24012G17KT 10SM CLR 17/00 A2972 RMK AO2 RAB19E49 SLP057 P0000 60000 T01720000 56012 TSNO
 
KMCC - Mcclellan Afb, California, USA
Distance from station: WSW 94mi, 151km
Updated: Thu, 19-Oct-2017 7:50pm PDT
Overcast
Overcast
 Wind from SSW
Wind: SSW 14 mph , 22 km/h, Gust: 21 mph , 33 km/h
Temperature: 61°F , 16°C
Dew Point: 54°F , 12°C
Humidity: 77%
Barometer: 29.88 inHg , 1011.9 hPa
Clouds: Overcast
Visibility: 10 miles , 16 km
Cloud details: Overcast 7500 ft
2017/10/20 02:50 KMCC 200250Z AUTO 20012G18KT 10SM OVC075 16/12 A2988 RMK AO2
KMYV - Marysville, California, USA
Distance from station: W 99mi, 159km
Updated: Thu, 19-Oct-2017 7:53pm PDT
Overcast
Overcast
 Wind from SSE
Wind: SSE 9 mph , 15 km/h
Temperature: 64°F , 18°C
Dew Point: 54°F , 12°C
Humidity: 68%
Barometer: 29.84 inHg , 1010.5 hPa
Clouds: Overcast
Visibility: 10 miles , 16 km
Cloud details: Overcast 7000 ft
2017/10/20 02:53 KMYV 200253Z AUTO 15008KT 10SM OVC070 18/12 A2984 RMK AO2 SLP106 T01780117 50006
Honor Flight NV - Honoring all of our Veterans CoCoRaHS (Community Collaborative Rain, Hail and Snow Network) Station Number: NV-DG-2 Live Lightning Map - USA Reno Skywarn Spotter ID: DO21 AlertID Southwestern Weather Network Carson Valley Community Food Closet - providing for the needs of our community